WEATHER DATA

YESTERDAY
Time Temp. Dewp. Hum. Wind dir Wind speed Wind gust Bar. 1h Prec. 24h Prec.
00:17 13 9.8 81 0 0.3 1006.5 0.0000 0.0000
00:26 12.8 9.6 81 0 0.6 1006.4 0.0000 0.0000
00:37 12.7 9.5 81 90 0.3 0.6 1006.3 0.0000 0.0000
00:48 12.5 9.3 81 90 0.3 0.6 1006.3 0.0000 0.0000
00:58 12.3 9.1 81 0 0.6 1006.1 0.0000 0.0000
01:07 12.1 8.9 81 149 0.3 0.6 1006.1 0.0000 0.0000
01:18 11.9 8.7 81 141 0.3 0.6 1006 0.0000 0.0000
01:28 11.8 8.8 82 0 0.3 1005.7 0.0000 0.0000
01:38 11.7 8.7 82 0 0.6 1005.7 0.0000 0.0000
01:48 11.6 8.8 83 0 0.3 1005.6 0.0000 0.0000
01:58 11.5 8.5 82 0 0.3 1005.6 0.0000 0.0000
02:08 11.3 8.5 83 0 0.3 1005.7 0.0000 0.0000
02:18 11.2 8.4 83 0 0.3 1005.7 0.0000 0.0000
02:28 11.1 8.3 83 0 0.6 1005.5 0.0000 0.0000
02:38 11.1 8.5 84 0 0.3 1005.6 0.0000 0.0000
02:48 11 8.4 84 0 0.3 1005.7 0.0000 0.0000
02:58 11 8.4 84 270 0.3 0.6 1005.6 0.0000 0.0000
03:09 10.8 8.2 84 0 0.3 1005.6 0.0000 0.0000
03:19 10.8 8.4 85 0 0.3 1005.5 0.0000 0.0000
03:28 10.9 8.5 85 0 0.3 1005.4 0.0000 0.0000
03:39 10.9 8.5 85 0 0.6 1005.4 0.0000 0.0000
03:49 11 8.6 85 0 0.3 1005.4 0.0000 0.0000
03:59 11 8.8 86 90 0.3 0.6 1005.7 0.0000 0.0000
04:08 11.1 8.8 86 0.3 0.6 1005.5 0.0000 0.0000
04:19 11.1 8.8 86 270 0.3 0.6 1005.4 0.0000 0.0000
04:29 11.2 8.9 86 0 0.6 1005.2 0.0000 0.0000
04:39 11.2 8.9 86 0 0.6 1005.1 0.0000 0.0000
04:49 11.2 8.9 86 315 0.3 0.6 1005.2 0.0000 0.0000
04:59 11.2 8.9 86 324 0.3 0.6 1005.1 0.0000 0.0000
05:09 11.2 8.9 86 324 0.3 0.6 1005 0.0000 0.0000
05:19 11.2 8.9 86 315 0.3 0.6 1005 0.0000 0.0000
05:30 11.2 8.9 86 270 0.3 0.6 1004.8 0.0000 0.0000
05:39 11.2 8.9 86 315 0.3 0.6 1004.8 0.0000 0.0000
05:49 11.3 9.2 87 333 0.3 0.6 1005 0.0000 0.0000
05:59 11.3 9.2 87 348 0.3 0.6 1005 0.0000 0.0000
06:10 11.3 9.2 87 333 0.3 0.6 1004.9 0.0000 0.0000
06:19 11.4 9.3 87 270 0.3 0.8 1005 0.0000 0.0000
06:29 11.4 9.3 87 270 0.3 0.6 1005.1 0.0000 0.0000
06:40 11.6 9.7 88 270 0.3 0.8 1005 0.0000 0.0000
06:50 11.6 9.7 88 270 0.3 0.6 1005.1 0.0000 0.0000
06:59 11.6 9.5 87 270 0.3 0.6 1005.2 0.0000 0.0000
07:10 11.7 9.8 88 333 0.3 0.6 1005 0.0000 0.0000
07:20 11.9 10 88 270 0.3 0.8 1004.8 0.0000 0.0000
07:30 12.2 10.3 88 270 0.3 0.8 1004.9 0.0000 0.0000
07:40 12.3 10.4 88 315 0.3 0.8 1005 0.0000 0.0000
07:50 12.5 10.6 88 18 0.3 0.6 1005.1 0.0000 0.0000
08:00 12.7 10.8 88 303 0.3 0.6 1005.1 0.0000 0.0000
08:10 12.9 10.8 87 0 0.6 1005 0.0000 0.0000
08:30 13.7 11.6 87 0 0.6 1005.1 0.0000 0.0000
08:40 14.1 12 87 146 0.3 0.6 1005 0.0000 0.0000
09:01 14.8 12.5 86 0 0.6 1004.6 0.0000 0.0000
09:20 15.7 13 84 177 0.3 1.1 1004.8 0.0000 0.0000
09:31 16.1 12.8 81 170 0.6 1.7 1004.5 0.0000 0.0000
09:41 16.5 13 80 178 0.6 1.9 1004.3 0.0000 0.0000
09:50 16.8 12.9 78 194 0.6 2.2 1004.5 0.0000 0.0000
10:00 17.2 12.9 76 194 0.6 1.4 1004.8 0.0000 0.0000
10:11 17.6 13.1 75 199 0.6 1.9 1004.6 0.0000 0.0000
10:21 18.1 13.6 75 194 0.6 1.7 1004.9 0.0000 0.0000
10:30 18.6 13.7 73 176 0.8 2.2 1004.9 0.0000 0.0000
10:41 18.9 13.5 71 182 0.8 1.9 1004.8 0.0000 0.0000
10:51 19.4 14.2 72 173 0.8 1.9 1004.9 0.0000 0.0000
11:01 19.9 13.8 68 192 1.1 3.1 1004.8 0.0000 0.0000
11:10 20.2 14.3 69 183 0.6 1.9 1004.9 0.0000 0.0000
11:21 20.6 14.3 67 180 0.8 2.5 1004.9 0.0000 0.0000
11:36 21.2 14.8 67 172 0.8 2.2 1005 0.0000 0.0000
11:46 21.5 14.4 64 189 1.4 3.6 1004.9 0.0000 0.0000
11:56 21.6 14.3 63 202 1.4 2.5 1004.6 0.0000 0.0000
12:16 21.8 14.5 63 192 1.1 3.3 1004.8 0.0000 0.0000
12:27 21.9 14.5 63 181 1.1 2.5 1004.8 0.0000 0.0000
12:36 22.1 15 64 186 1.1 2.5 1004.6 0.0000 0.0000
12:46 22.3 15.2 64 171 0.8 2.2 1004.8 0.0000 0.0000
12:56 22.4 15 63 186 1.1 2.2 1004.5 0.0000 0.0000
13:07 22.5 15.1 63 183 1.1 1.9 1004.5 0.0000 0.0000
13:16 22.5 15.4 64 173 0.8 3.1 1004.2 0.0000 0.0000
13:26 22.6 15.5 64 189 0.8 2.2 1004.1 0.0000 0.0000
13:37 22.6 15.2 63 187 0.8 1.9 1004.2 0.0000 0.0000
13:47 22.4 15.5 65 177 0.8 2.5 1004.1 0.0000 0.0000
13:57 22.5 16.1 67 192 0.8 2.5 1004 0.0000 0.0000
14:06 22.6 15.9 66 191 0.8 1.9 1003.8 0.0000 0.0000
14:17 22.7 16 66 190 0.6 1.9 1003.7 0.0000 0.0000
14:27 23 16.1 65 178 1.1 3.3 1003.6 0.0000 0.0000
14:36 23.2 16 64 176 0.8 3.1 1003.8 0.0000 0.0000
14:47 23.4 16 63 177 1.1 3.3 1003.7 0.0000 0.0000
14:56 23.4 16.2 64 168 0.8 2.5 1003.5 0.0000 0.0000
15:07 23.4 16.2 64 175 0.8 2.5 1003.4 0.0000 0.0000
15:17 23.5 16.1 63 177 0.8 2.2 1003.3 0.0000 0.0000
15:27 23.5 16.1 63 168 0.8 2.5 1003.3 0.0000 0.0000
15:37 23.7 16.5 64 166 0.6 1.9 1003.2 0.0000 0.0000
15:47 24 16.8 64 173 0.8 1.9 1003 0.0000 0.0000
15:57 24.3 16.8 63 176 0.8 1.9 1003 0.0000 0.0000
16:07 24.4 16.9 63 177 0.8 3.1 1002.9 0.0000 0.0000
16:18 24.3 16.6 62 163 0.8 2.2 1002.8 0.0000 0.0000
16:27 24.2 16.7 63 172 0.8 2.2 1002.9 0.0000 0.0000
16:37 24 16.8 64 160 0.8 2.2 1002.8 0.0000 0.0000
16:47 23.8 16.8 65 171 0.6 1.4 1002.9 0.0000 0.0000
16:58 23.6 16.6 65 171 0.8 3.1 1002.9 0.0000 0.0000
17:07 23.5 16.8 66 162 0.6 1.4 1002.9 0.0000 0.0000
17:17 23.3 16.6 66 159 0.8 3.1 1003 0.0000 0.0000
17:28 23.1 16.6 67 182 0.8 2.5 1002.9 0.0000 0.0000
17:38 22.8 14.4 59 193 1.1 3.6 1003.2 0.0000 0.0000
17:47 22.5 12.7 54 214 1.1 3.3 1003.1 0.0000 0.0000
17:57 22.3 13.1 56 203 0.6 1.9 1003.1 0.0000 0.0000
18:08 22.1 14.2 61 190 0.3 1.4 1003.1 0.0000 0.0000
18:18 21.9 14.3 62 174 0.3 1.1 1003.1 0.0000 0.0000
18:27 21.8 14.7 64 202 0.6 1.4 1003.1 0.0000 0.0000
18:38 21.7 15.1 66 202 0.3 0.8 1003.1 0.0000 0.0000
18:48 21.5 14.9 66 212 0.3 1.1 1003.2 0.0000 0.0000
18:58 21.3 14.9 67 192 0.3 1.1 1003 0.0000 0.0000
19:08 21.2 14.8 67 198 0.3 0.6 1003 0.0000 0.0000
19:18 21 15.1 69 195 0.3 0.8 1003 0.0000 0.0000
19:28 20.9 15.4 71 0 0.6 1002.8 0.0000 0.0000
19:38 20.7 15.7 73 0 0.6 1002.9 0.0000 0.0000
19:48 20.6 15.6 73 194 0.3 0.6 1003 0.0000 0.0000
19:58 20.5 15.7 74 166 0.3 0.8 1002.9 0.0000 0.0000
20:08 20.3 15.9 76 164 0.3 0.6 1002.9 0.0000 0.0000
20:18 20.1 15.7 76 0 0.3 1002.9 0.0000 0.0000
20:29 20 15.8 77 0 0.6 1003 0.0000 0.0000
20:38 19.9 15.5 76 0 0.8 1003 0.0000 0.0000
20:48 19.7 15.6 77 0 0.3 1003.1 0.1010 0.1000
20:59 19.5 15.6 78 0 0.6 1003.2 0.1010 0.1000
21:09 19.3 15.6 79 0 0.3 1003.2 0.1010 0.1000
21:18 19.2 15.5 79 0 0.3 1003.3 0.1010 0.1000
21:29 19 15.5 80 0 0.6 1003.2 0.1010 0.1000
21:39 18.9 15.4 80 213 0.3 0.6 1003.3 0.1010 0.1000
21:46 18.8 15.5 81 225 0.3 0.6 1003.3 0.0000 0.1000
21:55 18.8 15.5 81 225 0.3 0.6 1003.1 0.0000 0.1000
22:05 18.6 15.3 81 206 0.3 0.8 1003 0.0000 0.1000
22:15 18.5 15.2 81 218 0.3 0.6 1003.2 0.0000 0.1000
22:26 18.4 15.1 81 220 0.3 0.6 1002.9 0.0000 0.1000
22:35 18.4 15.1 81 196 0.3 0.8 1002.8 0.0000 0.1000
22:45 18.2 15.1 82 190 0.3 0.8 1002.9 0.0000 0.1000
22:56 18.2 15.1 82 212 0.3 0.6 1002.8 0.0000 0.1000
23:06 18 14.9 82 225 0.3 0.6 1002.7 0.0000 0.1000
23:15 17.8 14.7 82 225 0.3 0.6 1002.6 0.0000 0.1000
23:26 17.8 14.7 82 219 0.3 0.6 1002.6 0.0000 0.1000
23:36 17.6 14.5 82 225 0.3 0.8 1002.7 0.0000 0.1000
23:46 17.4 14.3 82 208 0.3 0.6 1003 0.0000 0.1000
23:55 17.2 14.3 83 225 0.3 0.6 1003 0.0000

DAY STATISTIC

2019-08-17
TEMPERATURE
AVERAGE
17.5
HIGH
24.4
16:07
LOW
10.8
03:09
PRESSURE
AVERAGE
1004.2
HIGH
1006.5
00:17
LOW
1002.6
23:15
DEWPOINT
AVERAGE
13.0
HIGH
16.9
16:07
LOW
8.2
03:09
HUMIDITY
AVERAGE
76
HIGH
88
06:40
LOW
54
17:47
WIND SPEED
AVERAGE
0.4
HIGH
1.4
11:46
WIND GUST
AVERAGE
1.3
HIGH
3.6
11:46
WIND DIRECTION
PREVAILING
S
44.9%
N
1.4
NE
0.0
E
2.2
SE
2.2
S
44.9
SW
10.9
W
7.2
NW
7.2
PRECIPITATION
RAIN HOUR
0.1
RAIN DAY
0.1
TEMPERATURE (°C)
LOW
10.8
HIGH
24.4
AVERAGE
17.5
PRESSURE (hpa)
LOW
1002.6
HIGH
1006.5
AVERAGE
1004.2
DEVICE